Twig, MN

5:19 AM CST on November 23, 2014 (GMT -0600)
Duluth International | Change Station
CLOSE
Current Station
Airport
Location: Duluth,
Elevation: 1427 ft
Nearby Weather Stations
Active Advisory: Dense Fog Advisory

Elev 1427 ft 46.84 °N, 92.19 °W | Updated 24 minutes ago

Fog
Fog
35 °F
Feels Like 30 °F
N
6
Wind Variable Wind from ESE

Today
High -- | Low -- °F
--% Chance of Precip.
Yesterday
High -- | Low -- °F
Precip. -- in
7:23 AM 4:27 PM
New Moon, 1% visible
Pressure 29.44 in
Visibility 0.2 miles
Clouds
Windchill 30 °F
Dew Point 33 °F
Humidity 92%
Rainfall 0.01 in
Snow Depth Not available.
UV Not available.
Pollen .10 out of 12
Air Quality Not available.
Flu Activity Not available.
METAR KDLH 231055Z 11005KT 1/4SM R09/1000V1200FT -DZ FG VV002 02/01 A2940 RMK AO2 SLP970 P0000 T00170006

More Conditions Fewer Conditions

Pressure 29.44 in
Visibility 0.2 miles
Clouds
Windchill 30 °F
Dew Point 33 °F
Humidity 92%
Rainfall 0.01 in
Snow Depth Not available.
UV Not available.
Pollen .10 out of 12
Air Quality Not available.
Flu Activity Not available.
METAR KDLH 231055Z 11005KT 1/4SM R09/1000V1200FT -DZ FG VV002 02/01 A2940 RMK AO2 SLP970 P0000 T00170006

More Conditions Fewer Conditions

10-Day Weather Forecast

Almanac

Astronomy

Nov. 23, 2014 Rise Set
Actual Time
Civil Twilight
Nautical Twilight
Astronomical Twilight
Moon
Length of Visible Light
Length of Day
Tomorrow will be .
, % of the Moon is Illuminated

Today's Extremes

State Highs State Lows

Community

WunderPhotos

Upload Photos

1,773,036 photos uploaded!

WunderBlogs® & News

Nearby

Air Quality

  Air Quality AQ Index Pollutant
Not available.

Snow Depth

Station Depth Elevation

Earthquake Activity

City Distance Mag. Time & Date
Minimum magnitude displayed is 2.5.

Coastal Water Temperatures

Place Temperature

Nearby Weather Stations